createdAt,value
2022-09-18T00:00:06.157Z,842.27
2022-09-18T00:01:01.417Z,849.24
2022-09-18T00:01:57.224Z,849.78
2022-09-18T00:02:52.302Z,853.58
2022-09-18T00:03:47.410Z,856.87
2022-09-18T00:04:43.479Z,854.13
2022-09-18T00:05:38.582Z,857.97
2022-09-18T00:06:34.372Z,853.58
2022-09-18T00:07:29.418Z,854.13
2022-09-18T00:08:24.813Z,857.97
2022-09-18T00:09:20.296Z,860.73
2022-09-18T00:10:15.443Z,864.64
2022-09-18T00:11:10.507Z,866.88
2022-09-18T00:12:06.867Z,870.84
2022-09-18T00:13:02.059Z,874.26
2022-09-18T00:13:57.872Z,874.26
2022-09-18T00:14:52.998Z,870.84
2022-09-18T00:15:48.180Z,870.27
2022-09-18T00:16:43.268Z,860.73
2022-09-18T00:17:39.707Z,865.20
2022-09-18T00:18:34.917Z,868.58
2022-09-18T00:19:30.201Z,871.98
2022-09-18T00:20:25.975Z,872.55
2022-09-18T00:21:21.204Z,873.12
2022-09-18T00:22:16.396Z,870.84
2022-09-18T00:23:12.575Z,870.84
2022-09-18T00:24:08.084Z,868.01
2022-09-18T00:25:03.590Z,868.01
2022-09-18T00:25:58.862Z,861.29
2022-09-18T00:26:54.062Z,857.42
2022-09-18T00:27:49.970Z,856.32
2022-09-18T00:28:45.135Z,851.40
2022-09-18T00:29:40.894Z,854.67
2022-09-18T00:30:36.097Z,854.67
2022-09-18T00:31:31.382Z,857.97
2022-09-18T00:32:27.168Z,849.78
2022-09-18T00:33:22.361Z,843.34
2022-09-18T00:34:17.484Z,848.70
2022-09-18T00:35:12.681Z,842.27
2022-09-18T00:36:07.917Z,848.16
2022-09-18T00:37:02.926Z,850.86
2022-09-18T00:37:58.173Z,855.22
2022-09-18T00:38:54.014Z,860.18
2022-09-18T00:39:48.983Z,866.88
2022-09-18T00:40:44.093Z,864.08
2022-09-18T00:41:39.996Z,865.76
2022-09-18T00:42:35.331Z,863.52
2022-09-18T00:43:30.447Z,848.16
2022-09-18T00:44:25.665Z,848.70
2022-09-18T00:45:20.638Z,849.78
2022-09-18T00:46:15.709Z,848.16
2022-09-18T00:47:10.765Z,848.16
2022-09-18T00:48:05.817Z,840.15
2022-09-18T00:49:00.917Z,835.94
2022-09-18T00:49:56.127Z,843.87
2022-09-18T00:50:51.102Z,843.34
2022-09-18T00:51:46.202Z,847.62
2022-09-18T00:52:41.140Z,846.01
2022-09-18T00:53:36.188Z,847.62
2022-09-18T00:54:31.342Z,855.22
2022-09-18T00:55:26.396Z,859.07
2022-09-18T00:56:21.547Z,865.76
2022-09-18T00:57:20.661Z,866.32
2022-09-18T00:58:15.782Z,864.64
2022-09-18T00:59:10.830Z,866.32
2022-09-18T01:00:05.935Z,861.29
2022-09-18T01:01:01.096Z,861.29
2022-09-18T01:01:56.157Z,858.52
2022-09-18T01:02:51.077Z,860.73
2022-09-18T01:03:46.119Z,862.40
2022-09-18T01:04:41.272Z,859.07
2022-09-18T01:05:36.344Z,870.27
2022-09-18T01:06:31.468Z,868.01
2022-09-18T01:07:26.437Z,873.69
2022-09-18T01:08:21.478Z,874.26
2022-09-18T01:09:27.990Z,868.01
2022-09-18T01:10:12.921Z,866.32
2022-09-18T01:11:06.885Z,860.73
2022-09-18T01:12:01.956Z,861.29
2022-09-18T01:12:57.148Z,859.07
2022-09-18T01:13:55.772Z,861.29
2022-09-18T01:14:50.833Z,868.58
2022-09-18T01:15:46.188Z,873.69
2022-09-18T01:16:41.243Z,871.98
2022-09-18T01:17:36.361Z,878.29
2022-09-18T01:18:31.413Z,875.98
2022-09-18T01:19:26.601Z,877.14
2022-09-18T01:20:21.653Z,873.12
2022-09-18T01:21:16.772Z,868.58
2022-09-18T01:22:11.890Z,862.40
2022-09-18T01:23:06.935Z,844.94
2022-09-18T01:24:02.238Z,840.68
2022-09-18T01:24:57.170Z,847.62
2022-09-18T01:25:52.210Z,861.29
2022-09-18T01:26:47.320Z,848.70
2022-09-18T01:27:42.388Z,848.70
2022-09-18T01:28:37.583Z,847.62
2022-09-18T01:29:32.692Z,850.86
2022-09-18T01:30:27.805Z,850.32
2022-09-18T01:31:22.944Z,855.77
2022-09-18T01:32:17.986Z,861.85
2022-09-18T01:33:13.040Z,858.52
2022-09-18T01:34:08.146Z,866.32
2022-09-18T01:35:09.872Z,856.87
2022-09-18T01:35:59.175Z,854.67
2022-09-18T01:36:53.328Z,853.58
2022-09-18T01:37:48.377Z,860.73
2022-09-18T01:38:43.501Z,864.08
2022-09-18T01:39:38.583Z,856.87
2022-09-18T01:40:33.693Z,857.42
2022-09-18T01:41:28.695Z,857.97
2022-09-18T01:42:23.751Z,857.97
2022-09-18T01:43:18.912Z,848.70
2022-09-18T01:44:13.977Z,842.27
2022-09-18T01:45:09.465Z,848.16
2022-09-18T01:46:04.642Z,858.52
2022-09-18T01:46:59.675Z,863.52
2022-09-18T01:47:56.091Z,869.14
2022-09-18T01:48:51.267Z,874.84
2022-09-18T01:49:46.990Z,877.14
2022-09-18T01:50:42.203Z,875.41
2022-09-18T01:51:37.336Z,878.87
2022-09-18T01:52:33.229Z,873.12
2022-09-18T01:53:28.448Z,875.98
2022-09-18T01:54:24.197Z,864.64
2022-09-18T01:55:19.393Z,871.41
2022-09-18T01:56:14.661Z,880.03
2022-09-18T01:57:10.562Z,874.26
2022-09-18T01:58:05.671Z,875.41
2022-09-18T01:59:00.876Z,877.14
2022-09-18T01:59:57.219Z,876.56
2022-09-18T02:00:52.372Z,874.84
2022-09-18T02:01:48.392Z,873.12
2022-09-18T02:02:43.446Z,866.88
2022-09-18T02:03:38.585Z,876.56
2022-09-18T02:04:34.385Z,871.41
2022-09-18T02:05:29.630Z,873.12
2022-09-18T02:06:25.533Z,864.08
2022-09-18T02:07:20.613Z,869.14
2022-09-18T02:08:15.993Z,861.85
2022-09-18T02:09:11.769Z,855.77
2022-09-18T02:10:07.122Z,865.76
2022-09-18T02:11:02.275Z,867.45
2022-09-18T02:11:58.631Z,857.42
2022-09-18T02:12:53.738Z,849.78
2022-09-18T02:13:49.539Z,852.49
2022-09-18T02:14:44.614Z,856.87
2022-09-18T02:15:40.075Z,855.22
2022-09-18T02:16:35.647Z,867.45
2022-09-18T02:17:30.852Z,859.07
2022-09-18T02:18:26.684Z,862.96
2022-09-18T02:19:21.753Z,864.08
2022-09-18T02:20:17.124Z,843.34
2022-09-18T02:21:12.784Z,838.04
2022-09-18T02:22:07.997Z,852.49
2022-09-18T02:23:03.223Z,856.32
2022-09-18T02:23:59.407Z,859.07
2022-09-18T02:24:54.542Z,860.18
2022-09-18T02:25:50.309Z,858.52
2022-09-18T02:26:45.521Z,853.58
2022-09-18T02:27:40.628Z,854.67
2022-09-18T02:28:36.423Z,853.58
2022-09-18T02:29:31.568Z,853.58
2022-09-18T02:30:27.366Z,847.08
2022-09-18T02:31:22.560Z,849.24
2022-09-18T02:32:17.745Z,859.63
2022-09-18T02:33:13.524Z,857.42
2022-09-18T02:34:08.756Z,863.52
2022-09-18T02:35:03.937Z,864.64
2022-09-18T02:36:00.542Z,866.32
2022-09-18T02:36:55.495Z,855.22
2022-09-18T02:37:51.423Z,850.32
2022-09-18T02:38:46.523Z,846.54
2022-09-18T02:39:41.620Z,849.24
2022-09-18T02:40:37.424Z,842.80
2022-09-18T02:41:32.589Z,841.21
2022-09-18T02:42:28.512Z,841.21
2022-09-18T02:43:23.613Z,843.34
2022-09-18T02:44:18.954Z,838.04
2022-09-18T02:45:14.767Z,842.80
2022-09-18T02:46:10.109Z,850.32
2022-09-18T02:47:05.229Z,841.21
2022-09-18T02:48:00.309Z,849.24
2022-09-18T02:48:55.396Z,853.03
2022-09-18T02:49:51.185Z,852.49
2022-09-18T02:50:46.440Z,851.40
2022-09-18T02:51:42.356Z,847.62
2022-09-18T02:52:37.430Z,851.40
2022-09-18T02:53:32.816Z,854.67
2022-09-18T02:54:28.615Z,851.95
2022-09-18T02:55:23.843Z,861.29
2022-09-18T02:56:19.183Z,865.76
2022-09-18T02:57:15.402Z,866.88
2022-09-18T02:58:10.464Z,874.26
2022-09-18T02:59:06.270Z,877.14
2022-09-18T03:00:01.455Z,871.98
2022-09-18T03:00:56.669Z,875.98
2022-09-18T03:01:52.491Z,870.84
2022-09-18T03:02:47.630Z,876.56
2022-09-18T03:03:42.676Z,867.45
2022-09-18T03:04:37.879Z,866.88
2022-09-18T03:05:33.324Z,867.45
2022-09-18T03:06:28.579Z,870.27
2022-09-18T03:07:23.528Z,843.87
2022-09-18T03:08:18.665Z,812.04
2022-09-18T03:09:13.726Z,819.02
2022-09-18T03:10:08.833Z,828.16
2022-09-18T03:11:03.902Z,815.02
2022-09-18T03:11:59.018Z,821.54
2022-09-18T03:12:54.103Z,835.42
2022-09-18T03:13:49.199Z,844.94
2022-09-18T03:14:44.271Z,843.87
2022-09-18T03:15:39.377Z,844.40
2022-09-18T03:16:34.457Z,851.40
2022-09-18T03:17:29.448Z,851.95
2022-09-18T03:18:24.516Z,850.86
2022-09-18T03:19:19.603Z,843.34
2022-09-18T03:20:14.677Z,844.94
2022-09-18T03:21:09.793Z,848.16
2022-09-18T03:22:04.870Z,854.13
2022-09-18T03:22:59.977Z,859.07
2022-09-18T03:23:55.072Z,859.63
2022-09-18T03:24:50.186Z,853.58
2022-09-18T03:25:45.257Z,854.67
2022-09-18T03:26:40.465Z,861.29
2022-09-18T03:27:35.374Z,869.71
2022-09-18T03:28:30.464Z,866.88
2022-09-18T03:29:25.538Z,864.08
2022-09-18T03:30:20.579Z,860.18
2022-09-18T03:31:15.776Z,857.97
2022-09-18T03:32:10.803Z,864.64
2022-09-18T03:33:05.851Z,860.18
2022-09-18T03:34:00.907Z,848.70
2022-09-18T03:34:59.147Z,849.24
2022-09-18T03:35:54.256Z,862.40
2022-09-18T03:36:49.247Z,840.68
2022-09-18T03:37:44.341Z,843.34
2022-09-18T03:38:39.443Z,834.90
2022-09-18T03:39:34.567Z,836.47
2022-09-18T03:40:29.550Z,842.80
2022-09-18T03:41:24.859Z,846.01
2022-09-18T03:42:19.714Z,848.16
2022-09-18T03:43:14.805Z,832.29
2022-09-18T03:44:09.903Z,838.57
2022-09-18T03:45:05.011Z,832.29
2022-09-18T03:46:00.109Z,837.52
2022-09-18T03:46:55.254Z,847.08
2022-09-18T03:47:50.238Z,853.58
2022-09-18T03:48:46.011Z,860.73
2022-09-18T03:49:41.131Z,856.87
2022-09-18T03:50:36.913Z,860.73
2022-09-18T03:51:32.222Z,865.20
2022-09-18T03:52:27.361Z,877.71
2022-09-18T03:53:23.140Z,874.26
2022-09-18T03:54:18.536Z,882.94
2022-09-18T03:55:13.721Z,879.45
2022-09-18T03:56:10.263Z,886.45
2022-09-18T03:57:05.363Z,883.52
2022-09-18T03:58:01.127Z,884.11
2022-09-18T03:58:56.306Z,887.04
2022-09-18T03:59:51.440Z,896.58
2022-09-18T04:00:47.208Z,884.11
2022-09-18T04:01:42.640Z,890.00
2022-09-18T04:02:38.384Z,888.82
2022-09-18T04:03:33.476Z,891.19
2022-09-18T04:04:28.731Z,891.19
2022-09-18T04:05:24.522Z,890.00
2022-09-18T04:06:19.750Z,894.17
2022-09-18T04:07:14.815Z,891.19
2022-09-18T04:08:11.298Z,886.45
2022-09-18T04:09:06.360Z,892.38
2022-09-18T04:10:02.139Z,892.98
2022-09-18T04:10:57.354Z,900.81
2022-09-18T04:11:52.412Z,898.39
2022-09-18T04:12:48.306Z,900.20
2022-09-18T04:13:43.693Z,895.97
2022-09-18T04:14:39.608Z,894.17
2022-09-18T04:15:34.687Z,898.39
2022-09-18T04:16:30.100Z,896.58
2022-09-18T04:17:25.869Z,891.19
2022-09-18T04:18:21.097Z,890.00
2022-09-18T04:19:16.439Z,895.37
2022-09-18T04:20:12.729Z,890.00
2022-09-18T04:21:07.822Z,893.57
2022-09-18T04:22:03.618Z,898.39
2022-09-18T04:22:59.018Z,895.37
2022-09-18T04:23:54.618Z,897.78
2022-09-18T04:24:50.123Z,897.18
2022-09-18T04:25:45.196Z,898.99
2022-09-18T04:26:41.120Z,901.42
2022-09-18T04:27:36.321Z,900.20
2022-09-18T04:28:31.677Z,902.64
2022-09-18T04:29:27.391Z,902.03
2022-09-18T04:30:22.492Z,907.55
2022-09-18T04:31:17.659Z,906.93
2022-09-18T04:32:13.965Z,907.55
2022-09-18T04:33:09.214Z,911.89
2022-09-18T04:34:05.090Z,910.02
2022-09-18T04:35:00.153Z,908.16
2022-09-18T04:35:55.274Z,905.70
2022-09-18T04:36:50.465Z,901.42
2022-09-18T04:37:47.173Z,898.99
2022-09-18T04:38:42.387Z,901.42
2022-09-18T04:39:37.585Z,888.82
2022-09-18T04:40:33.426Z,883.52
2022-09-18T04:41:28.492Z,880.03
2022-09-18T04:42:23.952Z,883.52
2022-09-18T04:43:20.029Z,881.77
2022-09-18T04:44:15.032Z,880.61
2022-09-18T04:45:11.292Z,878.29
2022-09-18T04:46:06.199Z,876.56
2022-09-18T04:47:01.583Z,877.14
2022-09-18T04:47:57.289Z,877.14
2022-09-18T04:48:52.747Z,881.19
2022-09-18T04:49:48.334Z,881.77
2022-09-18T04:50:43.594Z,885.28
2022-09-18T04:51:39.020Z,885.28
2022-09-18T04:52:34.913Z,890.59
2022-09-18T04:53:29.882Z,886.45
2022-09-18T04:54:25.117Z,878.87
2022-09-18T04:55:20.168Z,879.45
2022-09-18T04:56:15.641Z,872.55
2022-09-18T04:57:10.615Z,872.55
2022-09-18T04:58:06.044Z,875.41
2022-09-18T04:59:01.585Z,868.01
2022-09-18T04:59:56.968Z,868.01
2022-09-18T05:00:52.143Z,865.76
2022-09-18T05:01:48.396Z,863.52
2022-09-18T05:02:43.163Z,861.29
2022-09-18T05:03:38.489Z,864.08
2022-09-18T05:04:33.816Z,863.52
2022-09-18T05:05:28.881Z,860.18
2022-09-18T05:06:23.953Z,861.85
2022-09-18T05:07:19.027Z,861.85
2022-09-18T05:08:14.060Z,860.73
2022-09-18T05:09:09.149Z,855.77
2022-09-18T05:10:04.173Z,856.87
2022-09-18T05:10:59.392Z,856.87
2022-09-18T05:11:54.581Z,860.73
2022-09-18T05:12:49.663Z,854.67
2022-09-18T05:13:44.744Z,854.13
2022-09-18T05:14:39.845Z,856.32
2022-09-18T05:15:34.962Z,844.94
2022-09-18T05:16:30.075Z,833.85
2022-09-18T05:17:27.745Z,834.38
2022-09-18T05:18:22.848Z,833.85
2022-09-18T05:19:17.835Z,831.26
2022-09-18T05:20:12.883Z,832.81
2022-09-18T05:21:08.128Z,825.60
2022-09-18T05:22:03.333Z,827.14
2022-09-18T05:22:58.548Z,829.71
2022-09-18T05:23:53.793Z,829.71
2022-09-18T05:24:48.930Z,831.26
2022-09-18T05:25:44.029Z,842.27
2022-09-18T05:26:39.136Z,839.09
2022-09-18T05:27:34.243Z,835.94
2022-09-18T05:28:29.348Z,842.80
2022-09-18T05:29:24.414Z,848.16
2022-09-18T05:30:19.492Z,840.15
2022-09-18T05:31:14.616Z,836.47
2022-09-18T05:32:09.710Z,838.57
2022-09-18T05:33:04.788Z,831.26
2022-09-18T05:34:02.160Z,838.04
2022-09-18T05:34:57.244Z,833.33
2022-09-18T05:35:52.340Z,836.99
2022-09-18T05:36:47.578Z,830.74
2022-09-18T05:37:42.560Z,839.09
2022-09-18T05:38:37.670Z,831.78
2022-09-18T05:39:32.758Z,830.74
2022-09-18T05:40:27.954Z,825.60
2022-09-18T05:41:22.935Z,813.53
2022-09-18T05:42:18.042Z,812.54
2022-09-18T05:43:13.115Z,792.76
2022-09-18T05:44:08.250Z,795.12
2022-09-18T05:45:03.337Z,797.97
2022-09-18T05:45:58.345Z,798.92
2022-09-18T05:46:53.394Z,798.92
2022-09-18T05:47:49.355Z,801.80
2022-09-18T05:48:44.524Z,802.28
2022-09-18T05:49:39.916Z,797.02
2022-09-18T05:50:35.213Z,801.80
2022-09-18T05:51:30.368Z,812.04
2022-09-18T05:52:25.645Z,809.09
2022-09-18T05:53:21.080Z,813.03
2022-09-18T05:54:16.228Z,815.02
2022-09-18T05:55:11.637Z,820.53
2022-09-18T05:56:06.887Z,811.06
2022-09-18T05:57:01.971Z,798.45
2022-09-18T05:57:57.376Z,783.45
2022-09-18T05:58:52.716Z,760.68
2022-09-18T05:59:47.722Z,765.04
2022-09-18T06:00:42.731Z,769.45
2022-09-18T06:01:37.783Z,769.01
2022-09-18T06:02:32.760Z,770.34
2022-09-18T06:03:27.795Z,778.43
2022-09-18T06:04:22.795Z,783.91
2022-09-18T06:05:17.811Z,778.88
2022-09-18T06:06:12.827Z,765.04
2022-09-18T06:07:07.847Z,774.81
2022-09-18T06:08:03.086Z,787.61
2022-09-18T06:08:58.280Z,794.64
2022-09-18T06:09:53.313Z,803.73
2022-09-18T06:10:48.365Z,801.32
2022-09-18T06:11:43.374Z,804.70
2022-09-18T06:12:38.374Z,807.62
2022-09-18T06:13:33.425Z,814.02
2022-09-18T06:14:28.425Z,818.02
2022-09-18T06:15:23.475Z,829.71
2022-09-18T06:16:18.560Z,825.09
2022-09-18T06:17:13.555Z,829.19
2022-09-18T06:18:08.602Z,838.04
2022-09-18T06:19:03.828Z,842.80
2022-09-18T06:19:58.692Z,845.47
2022-09-18T06:20:53.744Z,844.40
2022-09-18T06:21:48.950Z,846.54
2022-09-18T06:22:44.864Z,839.09
2022-09-18T06:23:40.205Z,848.16
2022-09-18T06:24:35.551Z,844.40
2022-09-18T06:25:30.900Z,853.03
2022-09-18T06:26:26.248Z,833.33
2022-09-18T06:27:21.678Z,842.80
2022-09-18T06:28:17.003Z,834.38
2022-09-18T06:29:12.213Z,835.94
2022-09-18T06:30:07.581Z,835.94
2022-09-18T06:31:03.039Z,838.04
2022-09-18T06:31:58.268Z,841.21
2022-09-18T06:32:53.728Z,835.42
2022-09-18T06:33:49.101Z,838.04
2022-09-18T06:34:44.208Z,818.52
2022-09-18T06:35:39.662Z,821.54
2022-09-18T06:36:34.832Z,819.52
2022-09-18T06:37:30.299Z,811.55
2022-09-18T06:38:25.558Z,813.03
2022-09-18T06:39:20.935Z,796.54
2022-09-18T06:40:16.372Z,759.39
2022-09-18T06:41:11.647Z,757.66
2022-09-18T06:42:08.345Z,770.34
2022-09-18T06:43:03.684Z,784.37
2022-09-18T06:43:59.171Z,784.37
2022-09-18T06:44:54.444Z,789.94
2022-09-18T06:45:50.216Z,786.22
2022-09-18T06:46:45.598Z,781.16
2022-09-18T06:47:41.593Z,787.61
2022-09-18T06:48:36.813Z,787.15
2022-09-18T06:49:32.123Z,788.54
2022-09-18T06:50:27.430Z,786.22
2022-09-18T06:51:22.756Z,779.79
2022-09-18T06:52:17.815Z,775.26
2022-09-18T06:53:13.070Z,785.29
2022-09-18T06:54:08.124Z,788.54
2022-09-18T06:55:03.211Z,771.23
2022-09-18T06:55:58.283Z,775.26
2022-09-18T06:56:53.360Z,781.62
2022-09-18T06:57:48.359Z,786.22
2022-09-18T06:58:43.837Z,766.80
2022-09-18T06:59:38.899Z,751.27
2022-09-18T07:00:34.022Z,752.54
2022-09-18T07:01:29.176Z,762.42
2022-09-18T07:02:24.138Z,770.78
2022-09-18T07:03:19.190Z,777.07
2022-09-18T07:04:14.253Z,784.83
2022-09-18T07:05:09.325Z,782.53
2022-09-18T07:06:04.352Z,773.47
2022-09-18T07:06:59.525Z,779.79
2022-09-18T07:07:54.823Z,786.68
2022-09-18T07:08:49.880Z,792.28
2022-09-18T07:09:45.123Z,789.94
2022-09-18T07:10:40.185Z,797.97
2022-09-18T07:11:35.241Z,804.22
2022-09-18T07:12:30.361Z,763.29
2022-09-18T07:13:25.569Z,744.23
2022-09-18T07:14:20.915Z,765.92
2022-09-18T07:15:16.300Z,765.04
2022-09-18T07:16:11.838Z,780.70
2022-09-18T07:17:07.077Z,782.07
2022-09-18T07:18:02.310Z,777.52
2022-09-18T07:18:57.644Z,767.24
2022-09-18T07:19:53.005Z,779.33
2022-09-18T07:20:48.502Z,777.52
2022-09-18T07:21:43.674Z,780.24
2022-09-18T07:22:40.212Z,776.16
2022-09-18T07:23:34.466Z,779.33
2022-09-18T07:24:30.109Z,771.23
2022-09-18T07:25:25.335Z,775.71
2022-09-18T07:26:20.666Z,784.37
2022-09-18T07:27:16.139Z,779.33
2022-09-18T07:28:11.337Z,782.07
2022-09-18T07:29:09.979Z,773.91
2022-09-18T07:30:02.150Z,768.57
2022-09-18T07:30:57.531Z,730.38
2022-09-18T07:31:52.589Z,701.93
2022-09-18T07:32:47.691Z,712.43
2022-09-18T07:33:42.725Z,712.43
2022-09-18T07:34:37.963Z,713.19
2022-09-18T07:35:32.930Z,711.67
2022-09-18T07:36:27.961Z,727.19
2022-09-18T07:37:23.016Z,727.98
2022-09-18T07:38:18.241Z,742.58
2022-09-18T07:39:13.397Z,734.40
2022-09-18T07:40:08.671Z,734.40
2022-09-18T07:41:03.607Z,734.40
2022-09-18T07:41:58.721Z,727.98
2022-09-18T07:42:53.823Z,725.61
2022-09-18T07:43:48.898Z,703.41
2022-09-18T07:44:43.990Z,678.36
2022-09-18T07:45:39.027Z,621.47
2022-09-18T07:46:34.096Z,642.42
2022-09-18T07:47:29.072Z,655.69
2022-09-18T07:48:24.175Z,643.04
2022-09-18T07:49:19.242Z,646.16
2022-09-18T07:50:14.579Z,664.84
2022-09-18T07:51:09.693Z,669.51
2022-09-18T07:52:04.894Z,674.25
2022-09-18T07:53:00.244Z,668.17
2022-09-18T07:53:55.710Z,674.25
2022-09-18T07:54:50.941Z,673.57
2022-09-18T07:55:46.442Z,679.06
2022-09-18T07:56:46.060Z,681.83
2022-09-18T07:57:38.134Z,688.88
2022-09-18T07:58:32.422Z,702.67
2022-09-18T07:59:27.742Z,693.17
2022-09-18T08:00:23.213Z,697.52
2022-09-18T08:01:18.570Z,703.41
2022-09-18T08:02:14.091Z,688.88
2022-09-18T08:03:09.375Z,672.21
2022-09-18T08:04:05.141Z,670.86
2022-09-18T08:05:00.500Z,656.33
2022-09-18T08:05:55.937Z,658.93
2022-09-18T08:06:51.291Z,658.28
2022-09-18T08:07:46.740Z,664.84
2022-09-18T08:08:41.961Z,664.18
2022-09-18T08:09:37.285Z,664.84
2022-09-18T08:10:32.671Z,674.93
2022-09-18T08:11:28.151Z,669.51
2022-09-18T08:12:23.343Z,672.89
2022-09-18T08:13:18.734Z,668.17
2022-09-18T08:14:14.054Z,662.20
2022-09-18T08:15:09.387Z,654.40
2022-09-18T08:16:05.001Z,663.52
2022-09-18T08:17:00.100Z,651.20
2022-09-18T08:17:55.599Z,655.04
2022-09-18T08:18:50.869Z,653.12
2022-09-18T08:19:47.463Z,651.84
2022-09-18T08:20:42.991Z,651.20
2022-09-18T08:21:38.225Z,655.04
2022-09-18T08:22:33.564Z,658.93
2022-09-18T08:23:29.041Z,651.20
2022-09-18T08:24:24.133Z,641.19
2022-09-18T08:25:19.186Z,644.28
2022-09-18T08:26:17.589Z,642.42
2022-09-18T08:27:10.289Z,635.08
2022-09-18T08:28:04.321Z,629.68
2022-09-18T08:28:59.382Z,584.94
2022-09-18T08:29:54.484Z,565.11
2022-09-18T08:30:49.543Z,551.56
2022-09-18T08:31:44.631Z,530.50
2022-09-18T08:32:39.643Z,527.98
2022-09-18T08:33:34.639Z,513.74
2022-09-18T08:34:29.699Z,484.62
2022-09-18T08:35:24.794Z,470.93
2022-09-18T08:36:19.890Z,469.93
2022-09-18T08:37:15.115Z,458.62
2022-09-18T08:38:10.140Z,424.19
2022-09-18T08:39:05.248Z,382.58
2022-09-18T08:40:00.522Z,317.43
2022-09-18T08:40:55.476Z,285.16
2022-09-18T08:41:50.513Z,278.62
2022-09-18T08:42:45.527Z,289.43
2022-09-18T08:43:40.567Z,305.04
2022-09-18T08:44:35.598Z,307.04
2022-09-18T08:45:30.681Z,309.64
2022-09-18T08:46:26.027Z,314.69
2022-09-18T08:47:20.941Z,319.29
2022-09-18T08:48:16.025Z,304.19
2022-09-18T08:49:14.861Z,298.11
2022-09-18T08:50:09.948Z,297.30
2022-09-18T08:51:04.962Z,292.01
2022-09-18T08:51:59.978Z,275.58
2022-09-18T08:52:55.026Z,267.27
2022-09-18T08:53:50.099Z,256.61
2022-09-18T08:54:45.266Z,253.44
2022-09-18T08:55:40.383Z,256.61
2022-09-18T08:56:36.124Z,261.52
2022-09-18T08:57:31.625Z,270.58
2022-09-18T08:58:27.071Z,268.80
2022-09-18T08:59:22.645Z,270.35
2022-09-18T09:00:18.088Z,276.04
2022-09-18T09:01:13.685Z,286.15
2022-09-18T09:02:09.084Z,291.49
2022-09-18T09:03:04.411Z,295.96
2022-09-18T09:03:59.856Z,318.05
2022-09-18T09:04:55.345Z,335.96
2022-09-18T09:05:50.968Z,327.25
2022-09-18T09:06:46.493Z,333.23
2022-09-18T09:07:41.947Z,352.19
2022-09-18T09:08:37.378Z,357.56
2022-09-18T09:09:36.329Z,356.01
2022-09-18T09:10:31.793Z,354.09
2022-09-18T09:11:27.251Z,358.73
2022-09-18T09:12:22.758Z,368.40
2022-09-18T09:13:18.431Z,339.44
2022-09-18T09:14:13.783Z,322.74
2022-09-18T09:15:09.289Z,314.09
2022-09-18T09:16:04.938Z,327.25
2022-09-18T09:17:00.390Z,329.55
2022-09-18T09:17:55.763Z,327.90
2022-09-18T09:18:51.514Z,324.98
2022-09-18T09:19:46.722Z,333.23
2022-09-18T09:20:42.386Z,323.06
2022-09-18T09:21:37.867Z,302.23
2022-09-18T09:22:33.334Z,295.43
2022-09-18T09:23:28.352Z,283.19
2022-09-18T09:24:23.420Z,280.05
2022-09-18T09:25:18.617Z,275.35
2022-09-18T09:26:13.544Z,279.57
2022-09-18T09:27:08.587Z,278.15
2022-09-18T09:28:03.697Z,274.20
2022-09-18T09:28:58.762Z,272.15
2022-09-18T09:29:53.811Z,267.93
2022-09-18T09:30:48.872Z,268.14
2022-09-18T09:31:44.054Z,259.66
2022-09-18T09:32:40.473Z,250.73
2022-09-18T09:33:35.664Z,249.58
2022-09-18T09:34:30.589Z,240.97
2022-09-18T09:35:25.662Z,232.60
2022-09-18T09:36:21.116Z,244.38
2022-09-18T09:37:16.590Z,249.02
2022-09-18T09:38:12.257Z,250.35
2022-09-18T09:39:07.721Z,238.86
2022-09-18T09:40:03.342Z,237.31
2022-09-18T09:40:58.674Z,248.07
2022-09-18T09:41:54.154Z,257.01
2022-09-18T09:42:49.662Z,261.31
2022-09-18T09:43:45.277Z,265.76
2022-09-18T09:44:40.643Z,267.05
2022-09-18T09:45:36.274Z,283.68
2022-09-18T09:46:31.942Z,300.29
2022-09-18T09:47:27.268Z,324.98
2022-09-18T09:48:22.687Z,343.34
2022-09-18T09:49:17.937Z,354.09
2022-09-18T09:50:12.803Z,376.86
2022-09-18T09:51:07.900Z,393.18
2022-09-18T09:52:08.788Z,401.71
2022-09-18T09:52:59.033Z,418.34
2022-09-18T09:53:53.167Z,434.14
2022-09-18T09:54:48.225Z,458.93
2022-09-18T09:55:45.752Z,479.39
2022-09-18T09:56:40.796Z,485.32
2022-09-18T09:57:35.871Z,500.62
2022-09-18T09:58:30.968Z,508.64
2022-09-18T09:59:26.065Z,524.24
2022-09-18T10:00:21.036Z,530.07
2022-09-18T10:01:16.184Z,522.19
2022-09-18T10:02:11.766Z,512.55
2022-09-18T10:03:07.110Z,498.01
2022-09-18T10:04:02.588Z,466.64
2022-09-18T10:04:58.087Z,472.93
2022-09-18T10:05:54.008Z,470.26
2022-09-18T10:06:49.115Z,482.51
2022-09-18T10:07:44.525Z,493.58
2022-09-18T10:08:41.127Z,504.79
2022-09-18T10:09:36.660Z,529.65
2022-09-18T10:10:32.429Z,542.14
2022-09-18T10:11:27.856Z,566.07
2022-09-18T10:12:23.371Z,572.39
2022-09-18T10:13:18.837Z,580.36
2022-09-18T10:14:15.309Z,577.84
2022-09-18T10:15:09.807Z,503.65
2022-09-18T10:16:05.380Z,495.79
2022-09-18T10:17:00.663Z,483.91
2022-09-18T10:17:56.173Z,509.81
2022-09-18T10:18:51.769Z,525.07
2022-09-18T10:19:47.123Z,539.95
2022-09-18T10:20:42.609Z,525.07
2022-09-18T10:21:37.666Z,525.89
2022-09-18T10:22:32.743Z,543.91
2022-09-18T10:23:30.726Z,571.41
2022-09-18T10:24:23.892Z,585.46
2022-09-18T10:25:17.970Z,596.99
2022-09-18T10:26:13.071Z,596.45
2022-09-18T10:27:08.295Z,593.80
2022-09-18T10:28:03.358Z,592.74
2022-09-18T10:28:58.431Z,602.38
2022-09-18T10:29:53.483Z,613.46
2022-09-18T10:30:48.533Z,632.67
2022-09-18T10:31:43.645Z,653.76
2022-09-18T10:32:38.840Z,653.76
2022-09-18T10:33:33.763Z,669.51
2022-09-18T10:34:28.860Z,640.57
2022-09-18T10:35:23.953Z,641.19
2022-09-18T10:36:19.058Z,655.04
2022-09-18T10:37:14.108Z,683.23
2022-09-18T10:38:09.136Z,700.46
2022-09-18T10:39:04.249Z,706.39
2022-09-18T10:39:59.958Z,721.68
2022-09-18T10:40:55.349Z,732.78
2022-09-18T10:41:50.833Z,752.54
2022-09-18T10:42:46.073Z,767.68
2022-09-18T10:43:41.757Z,786.22
2022-09-18T10:44:37.125Z,791.35
2022-09-18T10:45:32.638Z,811.06
2022-09-18T10:46:28.118Z,829.71
2022-09-18T10:47:23.395Z,815.02
2022-09-18T10:48:18.904Z,776.16
2022-09-18T10:49:14.453Z,755.52
2022-09-18T10:50:10.100Z,756.80
2022-09-18T10:51:05.492Z,791.35
2022-09-18T10:52:01.201Z,779.79
2022-09-18T10:52:56.699Z,756.80
2022-09-18T10:53:52.184Z,758.52
2022-09-18T10:54:47.822Z,786.22
2022-09-18T10:55:43.316Z,793.23
2022-09-18T10:56:38.444Z,790.41
2022-09-18T10:57:33.474Z,834.38
2022-09-18T10:58:28.660Z,817.01
2022-09-18T10:59:23.780Z,806.16
2022-09-18T11:00:18.873Z,802.28
2022-09-18T11:01:14.034Z,812.04
2022-09-18T11:02:09.030Z,786.68
2022-09-18T11:03:04.175Z,756.80
2022-09-18T11:03:59.168Z,787.15
2022-09-18T11:04:54.292Z,813.53
2022-09-18T11:05:49.396Z,824.07
2022-09-18T11:06:44.389Z,831.26
2022-09-18T11:07:39.767Z,865.20
2022-09-18T11:08:35.568Z,881.19
2022-09-18T11:09:31.121Z,887.63
2022-09-18T11:10:30.159Z,835.42
2022-09-18T11:11:25.557Z,851.95
2022-09-18T11:12:21.121Z,874.26
2022-09-18T11:13:16.616Z,904.47
2022-09-18T11:14:11.970Z,933.57
2022-09-18T11:15:07.441Z,954.94
2022-09-18T11:16:03.138Z,970.20
2022-09-18T11:16:58.459Z,1020.64
2022-09-18T11:17:53.754Z,1033.28
2022-09-18T11:18:49.320Z,1043.78
2022-09-18T11:19:44.625Z,1038.10
2022-09-18T11:20:40.117Z,1051.18
2022-09-18T11:21:35.581Z,1041.34
2022-09-18T11:22:31.023Z,945.47
2022-09-18T11:23:26.454Z,884.69
2022-09-18T11:24:21.958Z,934.87
2022-09-18T11:25:17.611Z,962.51
2022-09-18T11:26:12.881Z,992.57
2022-09-18T11:27:07.971Z,979.46
2022-09-18T11:28:03.102Z,938.82
2022-09-18T11:28:58.148Z,950.85
2022-09-18T11:29:53.451Z,1028.51